createdAt,value
2023-03-02T00:00:54.649Z,410.00
2023-03-02T00:01:49.831Z,413.00
2023-03-02T00:02:45.109Z,412.00
2023-03-02T00:03:40.559Z,415.00
2023-03-02T00:04:35.455Z,418.00
2023-03-02T00:05:30.733Z,411.00
2023-03-02T00:06:25.903Z,416.00
2023-03-02T00:07:21.190Z,410.00
2023-03-02T00:08:16.349Z,420.00
2023-03-02T00:09:11.638Z,416.00
2023-03-02T00:10:06.633Z,417.00
2023-03-02T00:11:02.059Z,418.00
2023-03-02T00:11:57.052Z,412.00
2023-03-02T00:12:52.343Z,413.00
2023-03-02T00:13:47.591Z,412.00
2023-03-02T00:14:42.735Z,415.00
2023-03-02T00:15:37.950Z,414.00
2023-03-02T00:16:33.396Z,418.00
2023-03-02T00:17:28.320Z,413.00
2023-03-02T00:18:23.465Z,415.00
2023-03-02T00:19:18.726Z,413.00
2023-03-02T00:20:13.879Z,415.00
2023-03-02T00:21:09.116Z,414.00
2023-03-02T00:22:04.270Z,415.00
2023-03-02T00:22:59.394Z,417.00
2023-03-02T00:23:54.865Z,418.00
2023-03-02T00:24:49.870Z,416.00
2023-03-02T00:25:45.262Z,417.00
2023-03-02T00:26:40.267Z,413.00
2023-03-02T00:27:35.530Z,408.00
2023-03-02T00:28:31.276Z,415.00
2023-03-02T00:29:26.033Z,413.00
2023-03-02T00:30:21.158Z,412.00
2023-03-02T00:31:16.628Z,416.00
2023-03-02T00:32:11.576Z,415.00
2023-03-02T00:33:07.847Z,414.00
2023-03-02T00:34:02.071Z,409.00
2023-03-02T00:34:57.340Z,414.00
2023-03-02T00:35:52.496Z,416.00
2023-03-02T00:36:47.688Z,411.00
2023-03-02T00:37:42.854Z,410.00
2023-03-02T00:38:38.224Z,409.00
2023-03-02T00:39:33.396Z,409.00
2023-03-02T00:40:29.375Z,418.00
2023-03-02T00:41:24.544Z,414.00
2023-03-02T00:42:19.695Z,414.00
2023-03-02T00:43:14.861Z,412.00
2023-03-02T00:44:10.024Z,414.00
2023-03-02T00:45:05.180Z,414.00
2023-03-02T00:46:00.453Z,411.00
2023-03-02T00:46:55.536Z,414.00
2023-03-02T00:47:50.805Z,408.00
2023-03-02T00:48:45.849Z,416.00
2023-03-02T00:49:41.006Z,420.00
2023-03-02T00:50:36.126Z,424.00
2023-03-02T00:51:31.432Z,411.00
2023-03-02T00:52:26.431Z,410.00
2023-03-02T00:53:21.877Z,417.00
2023-03-02T00:54:16.908Z,413.00
2023-03-02T00:55:12.043Z,417.00
2023-03-02T00:56:07.173Z,415.00
2023-03-02T00:57:02.641Z,410.00
2023-03-02T00:57:57.748Z,413.00
2023-03-02T00:58:52.916Z,414.00
2023-03-02T00:59:48.061Z,413.00
2023-03-02T01:00:43.350Z,414.00
2023-03-02T01:01:38.478Z,414.00
2023-03-02T01:02:33.847Z,411.00
2023-03-02T01:03:29.074Z,416.00
2023-03-02T01:04:24.107Z,421.00
2023-03-02T01:05:19.393Z,414.00
2023-03-02T01:06:14.437Z,414.00
2023-03-02T01:07:09.589Z,414.00
2023-03-02T01:08:04.763Z,418.00
2023-03-02T01:08:59.897Z,412.00
2023-03-02T01:09:55.411Z,415.00
2023-03-02T01:10:50.507Z,414.00
2023-03-02T01:11:45.577Z,410.00
2023-03-02T01:12:40.471Z,414.00
2023-03-02T01:13:35.523Z,418.00
2023-03-02T01:14:30.537Z,419.00
2023-03-02T01:15:25.579Z,418.00
2023-03-02T01:16:20.674Z,418.00
2023-03-02T01:17:15.721Z,415.00
2023-03-02T01:18:12.121Z,415.00
2023-03-02T01:19:05.713Z,409.00
2023-03-02T01:20:00.902Z,410.00
2023-03-02T01:20:55.891Z,415.00
2023-03-02T01:21:51.182Z,409.00
2023-03-02T01:22:46.186Z,414.00
2023-03-02T01:23:41.120Z,411.00
2023-03-02T01:24:36.119Z,407.00
2023-03-02T01:25:31.269Z,409.00
2023-03-02T01:26:26.290Z,413.00
2023-03-02T01:27:21.326Z,409.00
2023-03-02T01:28:16.428Z,411.00
2023-03-02T01:29:11.347Z,413.00
2023-03-02T01:30:06.357Z,412.00
2023-03-02T01:31:01.503Z,409.00
2023-03-02T01:31:56.656Z,410.00
2023-03-02T01:32:51.761Z,411.00
2023-03-02T01:33:46.648Z,412.00
2023-03-02T01:34:42.047Z,410.00
2023-03-02T01:35:37.222Z,407.00
2023-03-02T01:36:32.757Z,407.00
2023-03-02T01:37:27.385Z,411.00
2023-03-02T01:38:22.835Z,411.00
2023-03-02T01:39:17.830Z,412.00
2023-03-02T01:40:13.177Z,412.00
2023-03-02T01:41:08.322Z,405.00
2023-03-02T01:42:03.782Z,416.00
2023-03-02T01:42:58.808Z,411.00
2023-03-02T01:43:54.076Z,411.00
2023-03-02T01:44:49.208Z,416.00
2023-03-02T01:45:44.429Z,411.00
2023-03-02T01:46:39.707Z,414.00
2023-03-02T01:47:35.117Z,411.00
2023-03-02T01:48:30.262Z,414.00
2023-03-02T01:49:25.287Z,411.00
2023-03-02T01:50:20.416Z,412.00
2023-03-02T01:51:15.774Z,412.00
2023-03-02T01:52:10.917Z,406.00
2023-03-02T01:53:06.117Z,412.00
2023-03-02T01:54:01.352Z,408.00
2023-03-02T01:54:56.626Z,409.00
2023-03-02T01:55:51.644Z,415.00
2023-03-02T01:56:46.896Z,410.00
2023-03-02T01:57:42.056Z,411.00
2023-03-02T01:58:37.453Z,407.00
2023-03-02T01:59:32.717Z,414.00
2023-03-02T02:00:27.900Z,419.00
2023-03-02T02:01:23.135Z,413.00
2023-03-02T02:02:18.200Z,416.00
2023-03-02T02:03:13.360Z,409.00
2023-03-02T02:04:08.915Z,414.00
2023-03-02T02:05:03.838Z,417.00
2023-03-02T02:05:59.017Z,409.00
2023-03-02T02:06:54.167Z,410.00
2023-03-02T02:07:49.451Z,414.00
2023-03-02T02:08:44.748Z,412.00
2023-03-02T02:09:40.264Z,412.00
2023-03-02T02:10:34.980Z,417.00
2023-03-02T02:11:30.397Z,409.00
2023-03-02T02:12:25.383Z,411.00
2023-03-02T02:13:20.562Z,406.00
2023-03-02T02:14:15.738Z,405.00
2023-03-02T02:15:11.077Z,404.00
2023-03-02T02:16:06.264Z,414.00
2023-03-02T02:17:01.405Z,411.00
2023-03-02T02:17:56.568Z,416.00
2023-03-02T02:18:51.734Z,417.00
2023-03-02T02:19:46.627Z,422.00
2023-03-02T02:20:41.792Z,424.00
2023-03-02T02:21:36.668Z,416.00
2023-03-02T02:22:31.719Z,419.00
2023-03-02T02:23:26.734Z,419.00
2023-03-02T02:24:21.882Z,414.00
2023-03-02T02:25:17.016Z,412.00
2023-03-02T02:26:12.088Z,408.00
2023-03-02T02:27:07.067Z,414.00
2023-03-02T02:28:02.107Z,414.00
2023-03-02T02:28:58.620Z,407.00
2023-03-02T02:29:53.639Z,417.00
2023-03-02T02:30:48.700Z,410.00
2023-03-02T02:33:10.348Z,416.00
2023-03-02T02:34:05.364Z,406.00
2023-03-02T02:35:00.509Z,412.00
2023-03-02T02:35:55.710Z,412.00
2023-03-02T02:36:50.927Z,409.00
2023-03-02T02:37:46.066Z,413.00
2023-03-02T02:38:41.212Z,409.00
2023-03-02T02:39:36.597Z,418.00
2023-03-02T02:40:31.599Z,413.00
2023-03-02T02:41:26.765Z,410.00
2023-03-02T02:42:21.900Z,412.00
2023-03-02T02:43:17.306Z,414.00
2023-03-02T02:44:12.330Z,418.00
2023-03-02T02:45:07.604Z,420.00
2023-03-02T02:46:02.812Z,414.00
2023-03-02T02:46:57.967Z,421.00
2023-03-02T02:47:53.201Z,414.00
2023-03-02T02:48:48.367Z,413.00
2023-03-02T02:49:43.506Z,414.00
2023-03-02T02:50:38.832Z,411.00
2023-03-02T02:51:33.988Z,416.00
2023-03-02T02:52:29.267Z,417.00
2023-03-02T02:53:24.525Z,418.00
2023-03-02T02:54:19.759Z,421.00
2023-03-02T02:55:14.856Z,413.00
2023-03-02T02:56:10.012Z,418.00
2023-03-02T02:57:05.118Z,416.00
2023-03-02T02:58:00.393Z,416.00
2023-03-02T02:58:55.566Z,418.00
2023-03-02T02:59:50.858Z,413.00
2023-03-02T03:00:45.987Z,421.00
2023-03-02T03:01:41.167Z,412.00
2023-03-02T03:02:36.290Z,419.00
2023-03-02T03:03:31.589Z,418.00
2023-03-02T03:04:26.680Z,413.00
2023-03-02T03:05:22.332Z,415.00
2023-03-02T03:06:17.014Z,416.00
2023-03-02T03:07:12.293Z,418.00
2023-03-02T03:08:07.417Z,417.00
2023-03-02T03:09:02.595Z,411.00
2023-03-02T03:09:58.373Z,416.00
2023-03-02T03:10:53.035Z,412.00
2023-03-02T03:11:48.187Z,414.00
2023-03-02T03:12:43.459Z,415.00
2023-03-02T03:13:38.733Z,421.00
2023-03-02T03:14:33.940Z,419.00
2023-03-02T03:15:29.066Z,413.00
2023-03-02T03:16:24.281Z,414.00
2023-03-02T03:17:19.418Z,417.00
2023-03-02T03:18:14.684Z,417.00
2023-03-02T03:19:09.860Z,412.00
2023-03-02T03:20:05.082Z,415.00
2023-03-02T03:21:00.204Z,416.00
2023-03-02T03:21:55.362Z,413.00
2023-03-02T03:22:50.497Z,415.00
2023-03-02T03:23:45.756Z,414.00
2023-03-02T03:24:40.754Z,413.00
2023-03-02T03:25:36.178Z,412.00
2023-03-02T03:26:31.489Z,411.00
2023-03-02T03:27:26.519Z,412.00
2023-03-02T03:28:21.657Z,413.00
2023-03-02T03:29:16.830Z,415.00
2023-03-02T03:30:12.002Z,415.00
2023-03-02T03:31:07.199Z,412.00
2023-03-02T03:32:02.498Z,413.00
2023-03-02T03:32:57.508Z,417.00
2023-03-02T03:33:52.814Z,416.00
2023-03-02T03:34:47.826Z,417.00
2023-03-02T03:35:42.993Z,415.00
2023-03-02T03:36:38.167Z,418.00
2023-03-02T03:37:33.381Z,416.00
2023-03-02T03:38:28.524Z,414.00
2023-03-02T03:39:23.689Z,412.00
2023-03-02T03:40:19.097Z,413.00
2023-03-02T03:41:14.214Z,410.00
2023-03-02T03:42:09.268Z,410.00
2023-03-02T03:43:04.509Z,409.00
2023-03-02T03:43:59.783Z,413.00
2023-03-02T03:44:54.808Z,409.00
2023-03-02T03:45:50.148Z,410.00
2023-03-02T03:46:45.279Z,413.00
2023-03-02T03:47:40.843Z,417.00
2023-03-02T03:48:35.693Z,411.00
2023-03-02T03:49:30.977Z,411.00
2023-03-02T03:50:25.961Z,410.00
2023-03-02T03:51:21.241Z,409.00
2023-03-02T03:52:16.419Z,411.00
2023-03-02T03:53:11.573Z,408.00
2023-03-02T03:54:06.942Z,411.00
2023-03-02T03:55:01.978Z,407.00
2023-03-02T03:55:57.110Z,411.00
2023-03-02T03:56:52.264Z,410.00
2023-03-02T03:57:47.485Z,411.00
2023-03-02T03:58:42.644Z,411.00
2023-03-02T03:59:37.809Z,416.00
2023-03-02T04:00:33.136Z,412.00
2023-03-02T04:01:28.278Z,409.00
2023-03-02T04:02:23.475Z,412.00
2023-03-02T04:03:18.579Z,410.00
2023-03-02T04:04:14.015Z,414.00
2023-03-02T04:05:09.035Z,413.00
2023-03-02T04:06:04.292Z,411.00
2023-03-02T04:06:59.472Z,409.00
2023-03-02T04:07:54.836Z,413.00
2023-03-02T04:08:50.003Z,411.00
2023-03-02T04:09:45.148Z,406.00
2023-03-02T04:10:40.299Z,412.00
2023-03-02T04:11:35.449Z,409.00
2023-03-02T04:12:30.592Z,406.00
2023-03-02T04:13:25.932Z,409.00
2023-03-02T04:14:21.193Z,409.00
2023-03-02T04:15:16.352Z,409.00
2023-03-02T04:16:11.672Z,409.00
2023-03-02T04:17:06.742Z,408.00
2023-03-02T04:18:01.874Z,414.00
2023-03-02T04:18:57.198Z,410.00
2023-03-02T04:19:52.330Z,409.00
2023-03-02T04:20:47.641Z,411.00
2023-03-02T04:21:42.773Z,412.00
2023-03-02T04:22:37.929Z,416.00
2023-03-02T04:23:33.162Z,411.00
2023-03-02T04:24:28.689Z,410.00
2023-03-02T04:25:23.550Z,412.00
2023-03-02T04:26:18.818Z,412.00
2023-03-02T04:27:13.999Z,413.00
2023-03-02T04:28:09.343Z,406.00
2023-03-02T04:29:04.613Z,410.00
2023-03-02T04:30:01.206Z,416.00
2023-03-02T04:30:56.198Z,414.00
2023-03-02T04:31:51.789Z,409.00
2023-03-02T04:32:46.696Z,412.00
2023-03-02T04:33:41.980Z,410.00
2023-03-02T04:34:37.158Z,413.00
2023-03-02T04:35:32.194Z,412.00
2023-03-02T04:36:27.494Z,410.00
2023-03-02T04:37:22.654Z,413.00
2023-03-02T04:38:17.784Z,417.00
2023-03-02T04:39:13.072Z,415.00
2023-03-02T04:40:08.366Z,410.00
2023-03-02T04:41:03.382Z,412.00
2023-03-02T04:41:58.647Z,409.00
2023-03-02T04:42:54.119Z,413.00
2023-03-02T04:43:49.081Z,411.00
2023-03-02T04:44:44.243Z,411.00
2023-03-02T04:45:39.404Z,409.00
2023-03-02T04:46:35.017Z,414.00
2023-03-02T04:47:29.737Z,417.00
2023-03-02T04:48:25.024Z,411.00
2023-03-02T04:49:20.199Z,410.00
2023-03-02T04:50:15.493Z,411.00
2023-03-02T04:51:10.490Z,411.00
2023-03-02T04:52:05.738Z,410.00
2023-03-02T04:53:01.022Z,410.00
2023-03-02T04:53:56.288Z,414.00
2023-03-02T04:54:51.460Z,415.00
2023-03-02T04:55:46.757Z,413.00
2023-03-02T04:56:41.992Z,415.00
2023-03-02T04:57:37.128Z,411.00
2023-03-02T04:58:32.256Z,413.00
2023-03-02T04:59:27.457Z,413.00
2023-03-02T05:00:22.637Z,416.00
2023-03-02T05:01:17.662Z,412.00
2023-03-02T05:03:40.515Z,411.00
2023-03-02T05:04:37.377Z,410.00
2023-03-02T05:05:31.560Z,414.00
2023-03-02T05:06:25.923Z,412.00
2023-03-02T05:07:21.201Z,415.00
2023-03-02T05:08:16.329Z,414.00
2023-03-02T05:09:11.652Z,413.00
2023-03-02T05:10:06.667Z,416.00
2023-03-02T05:11:01.838Z,411.00
2023-03-02T05:11:57.007Z,407.00
2023-03-02T05:12:52.155Z,414.00
2023-03-02T05:13:47.517Z,414.00
2023-03-02T05:14:45.403Z,416.00
2023-03-02T05:15:37.718Z,416.00
2023-03-02T05:16:33.253Z,412.00
2023-03-02T05:17:28.290Z,414.00
2023-03-02T05:18:23.588Z,412.00
2023-03-02T05:19:18.736Z,416.00
2023-03-02T05:20:14.135Z,416.00
2023-03-02T05:21:09.159Z,416.00
2023-03-02T05:22:04.426Z,413.00
2023-03-02T05:22:59.652Z,411.00
2023-03-02T05:23:54.820Z,410.00
2023-03-02T05:24:49.833Z,419.00
2023-03-02T05:25:45.157Z,414.00
2023-03-02T05:26:40.269Z,415.00
2023-03-02T05:27:35.535Z,416.00
2023-03-02T05:28:30.753Z,414.00
2023-03-02T05:29:25.929Z,418.00
2023-03-02T05:30:21.048Z,416.00
2023-03-02T05:31:16.400Z,416.00
2023-03-02T05:32:11.598Z,414.00
2023-03-02T05:33:06.822Z,412.00
2023-03-02T05:34:02.201Z,415.00
2023-03-02T05:34:57.241Z,414.00
2023-03-02T05:35:52.400Z,416.00
2023-03-02T05:36:47.630Z,420.00
2023-03-02T05:37:42.788Z,419.00
2023-03-02T05:38:37.940Z,418.00
2023-03-02T05:39:33.175Z,422.00
2023-03-02T05:40:28.338Z,416.00
2023-03-02T05:41:23.469Z,419.00
2023-03-02T05:43:53.189Z,410.00
2023-03-02T05:44:46.069Z,417.00
2023-03-02T05:45:41.314Z,425.00
2023-03-02T05:46:36.743Z,417.00
2023-03-02T05:47:31.794Z,423.00
2023-03-02T05:48:26.997Z,418.00
2023-03-02T05:49:22.247Z,419.00
2023-03-02T05:50:17.438Z,419.00
2023-03-02T05:51:12.676Z,421.00
2023-03-02T05:52:07.894Z,417.00
2023-03-02T05:53:03.238Z,417.00
2023-03-02T05:53:59.131Z,419.00
2023-03-02T05:54:53.674Z,420.00
2023-03-02T05:55:48.853Z,423.00
2023-03-02T05:56:44.082Z,419.00
2023-03-02T05:57:39.285Z,420.00
2023-03-02T05:58:34.492Z,420.00
2023-03-02T05:59:29.717Z,416.00
2023-03-02T06:00:24.976Z,421.00
2023-03-02T06:01:21.192Z,420.00
2023-03-02T06:02:15.529Z,423.00
2023-03-02T06:03:10.851Z,422.00
2023-03-02T06:04:06.264Z,425.00
2023-03-02T06:05:01.408Z,423.00
2023-03-02T06:05:56.705Z,420.00
2023-03-02T06:06:52.089Z,428.00
2023-03-02T06:07:47.375Z,423.00
2023-03-02T06:08:42.797Z,422.00
2023-03-02T06:09:38.026Z,425.00
2023-03-02T06:10:33.275Z,425.00
2023-03-02T06:11:28.733Z,422.00
2023-03-02T06:12:24.122Z,436.00
2023-03-02T06:13:19.452Z,439.00
2023-03-02T06:14:15.044Z,425.00
2023-03-02T06:15:10.187Z,417.00
2023-03-02T06:16:05.521Z,431.00
2023-03-02T06:17:00.872Z,423.00
2023-03-02T06:17:56.171Z,423.00
2023-03-02T06:18:51.521Z,424.00
2023-03-02T06:19:46.888Z,420.00
2023-03-02T06:20:42.392Z,429.00
2023-03-02T06:21:37.588Z,425.00
2023-03-02T06:22:32.995Z,427.00
2023-03-02T06:23:28.306Z,431.00
2023-03-02T06:24:23.778Z,436.00
2023-03-02T06:25:18.988Z,425.00
2023-03-02T06:26:14.339Z,421.00
2023-03-02T06:27:09.645Z,419.00
2023-03-02T06:28:04.976Z,421.00
2023-03-02T06:29:00.319Z,423.00
2023-03-02T06:29:55.665Z,421.00
2023-03-02T06:30:51.024Z,417.00
2023-03-02T06:31:46.389Z,425.00
2023-03-02T06:32:41.808Z,431.00
2023-03-02T06:33:37.169Z,420.00
2023-03-02T06:34:35.161Z,421.00
2023-03-02T06:35:28.118Z,424.00
2023-03-02T06:36:23.427Z,424.00
2023-03-02T06:37:18.706Z,429.00
2023-03-02T06:38:14.093Z,423.00
2023-03-02T06:39:09.401Z,422.00
2023-03-02T06:40:04.750Z,423.00
2023-03-02T06:41:00.156Z,423.00
2023-03-02T06:41:55.443Z,422.00
2023-03-02T06:42:50.846Z,418.00
2023-03-02T06:43:46.162Z,423.00
2023-03-02T06:44:41.676Z,424.00
2023-03-02T06:45:36.934Z,439.00
2023-03-02T06:46:32.530Z,430.00
2023-03-02T06:47:27.613Z,422.00
2023-03-02T06:48:22.948Z,422.00
2023-03-02T06:49:18.312Z,417.00
2023-03-02T06:50:13.785Z,420.00
2023-03-02T06:52:33.020Z,419.00
2023-03-02T06:53:28.269Z,431.00
2023-03-02T06:54:24.356Z,427.00
2023-03-02T06:55:19.044Z,423.00
2023-03-02T06:56:14.243Z,420.00
2023-03-02T06:57:09.590Z,419.00
2023-03-02T06:58:04.952Z,418.00
2023-03-02T06:59:00.294Z,418.00
2023-03-02T06:59:55.632Z,416.00
2023-03-02T07:00:51.077Z,422.00
2023-03-02T07:01:46.285Z,426.00
2023-03-02T07:02:41.753Z,424.00
2023-03-02T07:03:37.046Z,428.00
2023-03-02T07:04:32.469Z,429.00
2023-03-02T07:05:27.862Z,423.00
2023-03-02T07:06:23.259Z,422.00
2023-03-02T07:07:18.646Z,423.00
2023-03-02T07:08:14.107Z,427.00
2023-03-02T07:09:09.595Z,419.00
2023-03-02T07:10:04.837Z,424.00
2023-03-02T07:11:00.203Z,418.00
2023-03-02T07:11:55.602Z,423.00
2023-03-02T07:12:51.275Z,418.00
2023-03-02T07:13:46.394Z,418.00
2023-03-02T07:14:41.757Z,425.00
2023-03-02T07:15:37.223Z,420.00
2023-03-02T07:16:32.592Z,418.00
2023-03-02T07:17:27.980Z,426.00
2023-03-02T07:18:23.478Z,422.00
2023-03-02T07:19:18.738Z,424.00
2023-03-02T07:20:14.126Z,427.00
2023-03-02T07:21:09.604Z,419.00
2023-03-02T07:22:04.966Z,422.00
2023-03-02T07:23:00.617Z,419.00
2023-03-02T07:23:55.761Z,419.00
2023-03-02T07:24:51.136Z,420.00
2023-03-02T07:25:46.563Z,421.00
2023-03-02T07:26:41.963Z,422.00
2023-03-02T07:27:37.326Z,423.00
2023-03-02T07:28:32.859Z,422.00
2023-03-02T07:29:28.121Z,425.00
2023-03-02T07:30:23.522Z,439.00
2023-03-02T07:31:19.041Z,430.00
2023-03-02T07:32:14.466Z,425.00
2023-03-02T07:33:09.874Z,428.00
2023-03-02T07:34:05.485Z,427.00
2023-03-02T07:35:00.794Z,425.00
2023-03-02T07:35:56.352Z,423.00
2023-03-02T07:36:51.793Z,418.00
2023-03-02T07:37:47.255Z,426.00
2023-03-02T07:38:42.831Z,426.00
2023-03-02T07:39:38.364Z,423.00
2023-03-02T07:40:33.627Z,422.00
2023-03-02T07:41:29.233Z,424.00
2023-03-02T07:42:24.561Z,423.00
2023-03-02T07:43:20.246Z,421.00
2023-03-02T07:44:15.413Z,420.00
2023-03-02T07:45:10.881Z,426.00
2023-03-02T07:46:06.529Z,419.00
2023-03-02T07:47:01.943Z,427.00
2023-03-02T07:47:57.356Z,429.00
2023-03-02T07:48:52.675Z,430.00
2023-03-02T07:49:48.011Z,428.00
2023-03-02T07:50:43.455Z,422.00
2023-03-02T07:51:38.881Z,420.00
2023-03-02T07:52:34.360Z,428.00
2023-03-02T07:53:32.692Z,420.00
2023-03-02T07:54:25.301Z,418.00
2023-03-02T07:55:20.730Z,416.00
2023-03-02T07:56:16.133Z,417.00
2023-03-02T07:57:11.675Z,420.00
2023-03-02T07:58:07.404Z,414.00
2023-03-02T07:59:02.405Z,415.00
2023-03-02T07:59:57.907Z,416.00
2023-03-02T08:00:53.331Z,427.00
2023-03-02T08:01:48.813Z,416.00
2023-03-02T08:02:44.215Z,419.00
2023-03-02T08:03:39.757Z,422.00
2023-03-02T08:04:35.461Z,421.00
2023-03-02T08:05:30.610Z,419.00
2023-03-02T08:06:26.171Z,415.00
2023-03-02T08:07:21.630Z,423.00
2023-03-02T08:08:17.186Z,424.00
2023-03-02T08:09:12.620Z,424.00
2023-03-02T08:10:08.036Z,420.00
2023-03-02T08:11:03.507Z,418.00
2023-03-02T08:11:59.081Z,418.00
2023-03-02T08:12:54.609Z,421.00
2023-03-02T08:13:50.010Z,416.00
2023-03-02T08:14:45.329Z,421.00
2023-03-02T08:15:40.716Z,419.00
2023-03-02T08:16:36.349Z,417.00
2023-03-02T08:17:31.796Z,418.00
2023-03-02T08:18:27.351Z,424.00
2023-03-02T08:19:22.652Z,424.00
2023-03-02T08:20:18.082Z,422.00
2023-03-02T08:21:13.652Z,424.00
2023-03-02T08:22:09.085Z,421.00
2023-03-02T08:23:04.644Z,418.00
2023-03-02T08:24:00.131Z,418.00
2023-03-02T08:24:55.342Z,421.00
2023-03-02T08:25:50.914Z,422.00
2023-03-02T08:26:46.218Z,426.00
2023-03-02T08:27:41.670Z,422.00
2023-03-02T08:28:37.217Z,425.00
2023-03-02T08:29:32.677Z,429.00
2023-03-02T08:30:28.155Z,422.00
2023-03-02T08:31:23.766Z,421.00
2023-03-02T08:32:19.255Z,422.00
2023-03-02T08:33:14.727Z,421.00
2023-03-02T08:34:10.491Z,425.00
2023-03-02T08:35:05.680Z,423.00
2023-03-02T08:36:01.157Z,428.00
2023-03-02T08:36:56.734Z,425.00
2023-03-02T08:37:52.203Z,426.00
2023-03-02T08:38:47.657Z,425.00
2023-03-02T08:39:43.249Z,423.00
2023-03-02T08:40:38.685Z,422.00
2023-03-02T08:41:34.398Z,418.00
2023-03-02T08:42:29.810Z,424.00
2023-03-02T08:43:25.260Z,424.00
2023-03-02T08:44:20.714Z,423.00
2023-03-02T08:45:16.245Z,424.00
2023-03-02T08:46:11.849Z,422.00
2023-03-02T08:47:07.222Z,423.00
2023-03-02T08:48:02.762Z,423.00
2023-03-02T08:48:58.679Z,423.00
2023-03-02T08:49:53.832Z,419.00
2023-03-02T08:50:49.114Z,423.00
2023-03-02T08:51:44.575Z,421.00
2023-03-02T08:52:40.468Z,428.00
2023-03-02T08:53:35.578Z,424.00
2023-03-02T08:54:31.142Z,424.00
2023-03-02T08:55:26.579Z,427.00
2023-03-02T08:56:21.985Z,420.00
2023-03-02T08:57:17.951Z,425.00
2023-03-02T08:58:12.860Z,426.00
2023-03-02T08:59:08.297Z,422.00
2023-03-02T09:00:03.904Z,425.00
2023-03-02T09:00:59.382Z,423.00
2023-03-02T09:01:54.710Z,422.00
2023-03-02T09:02:50.325Z,418.00
2023-03-02T09:03:45.767Z,426.00
2023-03-02T09:04:41.401Z,421.00
2023-03-02T09:05:37.478Z,418.00
2023-03-02T09:06:32.232Z,418.00
2023-03-02T09:07:27.647Z,426.00
2023-03-02T09:08:24.198Z,419.00
2023-03-02T09:09:18.673Z,410.00
2023-03-02T09:10:14.140Z,417.00
2023-03-02T09:11:09.749Z,417.00
2023-03-02T09:12:05.170Z,422.00
2023-03-02T09:13:00.582Z,421.00
2023-03-02T09:13:56.054Z,417.00
2023-03-02T09:14:51.519Z,420.00
2023-03-02T09:15:47.127Z,411.00
2023-03-02T09:16:42.653Z,411.00
2023-03-02T09:17:38.167Z,419.00
2023-03-02T09:18:33.633Z,423.00
2023-03-02T09:19:29.179Z,417.00
2023-03-02T09:20:24.642Z,412.00
2023-03-02T09:21:20.424Z,417.00
2023-03-02T09:22:16.325Z,413.00
2023-03-02T09:23:11.726Z,416.00
2023-03-02T09:24:06.575Z,412.00
2023-03-02T09:25:02.076Z,411.00
2023-03-02T09:25:57.566Z,411.00
2023-03-02T09:26:53.302Z,418.00
2023-03-02T09:27:48.720Z,414.00
2023-03-02T09:28:44.080Z,416.00
2023-03-02T09:29:39.654Z,422.00
2023-03-02T09:30:35.169Z,427.00
2023-03-02T09:31:30.890Z,415.00
2023-03-02T09:32:26.401Z,412.00
2023-03-02T09:33:21.754Z,415.00
2023-03-02T09:34:17.249Z,414.00
2023-03-02T09:35:12.850Z,416.00
2023-03-02T09:36:08.391Z,423.00
2023-03-02T09:37:03.909Z,426.00
2023-03-02T09:37:59.479Z,424.00
2023-03-02T09:38:54.841Z,415.00
2023-03-02T09:39:50.386Z,426.00
2023-03-02T09:40:46.035Z,422.00
2023-03-02T09:41:41.298Z,419.00
2023-03-02T09:42:43.869Z,416.00
2023-03-02T09:43:33.270Z,426.00
2023-03-02T09:44:28.008Z,423.00
2023-03-02T09:45:23.244Z,416.00
2023-03-02T09:46:18.838Z,423.00
2023-03-02T09:47:15.383Z,417.00
2023-03-02T09:48:09.867Z,422.00
2023-03-02T09:49:05.354Z,413.00
2023-03-02T09:50:00.955Z,418.00
2023-03-02T09:50:56.363Z,411.00
2023-03-02T09:51:51.891Z,413.00
2023-03-02T09:52:48.357Z,408.00
2023-03-02T09:53:42.887Z,412.00
2023-03-02T09:54:38.479Z,415.00
2023-03-02T09:55:33.865Z,416.00
2023-03-02T09:56:29.495Z,419.00
2023-03-02T09:57:24.876Z,420.00
2023-03-02T09:58:20.400Z,421.00
2023-03-02T09:59:15.870Z,418.00
2023-03-02T10:00:19.079Z,425.00
2023-03-02T10:01:07.963Z,417.00
2023-03-02T10:02:02.381Z,424.00
2023-03-02T10:03:05.119Z,420.00
2023-03-02T10:03:54.394Z,418.00
2023-03-02T10:04:48.802Z,410.00
2023-03-02T10:05:44.441Z,411.00
2023-03-02T10:06:39.973Z,411.00
2023-03-02T10:07:35.426Z,417.00
2023-03-02T10:08:31.148Z,417.00
2023-03-02T10:09:26.284Z,418.00
2023-03-02T10:10:22.092Z,423.00
2023-03-02T10:11:17.481Z,426.00
2023-03-02T10:12:13.106Z,421.00
2023-03-02T10:13:08.510Z,424.00
2023-03-02T10:14:03.990Z,422.00
2023-03-02T10:14:59.489Z,421.00
2023-03-02T10:15:54.916Z,415.00
2023-03-02T10:16:50.607Z,418.00
2023-03-02T10:17:45.985Z,422.00
2023-03-02T10:18:41.539Z,421.00
2023-03-02T10:19:37.049Z,421.00
2023-03-02T10:20:35.441Z,421.00
2023-03-02T10:21:27.888Z,418.00
2023-03-02T10:22:23.389Z,418.00
2023-03-02T10:23:19.287Z,414.00
2023-03-02T10:24:14.276Z,409.00
2023-03-02T10:25:09.801Z,411.00
2023-03-02T10:26:05.196Z,410.00
2023-03-02T10:27:00.863Z,417.00
2023-03-02T10:27:56.403Z,413.00
2023-03-02T10:28:52.274Z,418.00
2023-03-02T10:29:47.556Z,421.00
2023-03-02T10:30:43.052Z,420.00
2023-03-02T10:31:38.582Z,426.00
2023-03-02T10:32:34.164Z,411.00
2023-03-02T10:33:29.629Z,412.00
2023-03-02T10:34:25.831Z,410.00
2023-03-02T10:35:21.927Z,412.00
2023-03-02T10:36:16.207Z,413.00
2023-03-02T10:37:11.766Z,407.00
2023-03-02T10:38:07.258Z,408.00
2023-03-02T10:39:02.771Z,411.00
2023-03-02T10:39:58.277Z,408.00
2023-03-02T10:40:53.820Z,409.00
2023-03-02T10:41:49.349Z,410.00
2023-03-02T10:42:44.976Z,420.00
2023-03-02T10:43:40.233Z,415.00
2023-03-02T10:44:35.735Z,411.00
2023-03-02T10:45:31.105Z,414.00
2023-03-02T10:46:26.737Z,413.00
2023-03-02T10:47:22.573Z,410.00
2023-03-02T10:48:17.830Z,412.00
2023-03-02T10:49:13.621Z,422.00
2023-03-02T10:50:08.978Z,419.00
2023-03-02T10:51:04.544Z,418.00
2023-03-02T10:52:00.008Z,412.00
2023-03-02T10:53:00.201Z,434.00
2023-03-02T10:53:52.075Z,417.00
2023-03-02T10:54:46.661Z,413.00
2023-03-02T10:55:42.208Z,410.00
2023-03-02T10:56:37.853Z,419.00
2023-03-02T10:57:33.334Z,414.00
2023-03-02T10:58:28.957Z,414.00
2023-03-02T10:59:24.191Z,410.00
2023-03-02T11:00:19.710Z,415.00
2023-03-02T11:01:15.501Z,416.00
2023-03-02T11:02:10.960Z,424.00
2023-03-02T11:03:06.322Z,425.00
2023-03-02T11:04:01.915Z,425.00
2023-03-02T11:04:57.998Z,423.00
2023-03-02T11:05:52.906Z,421.00
2023-03-02T11:06:48.426Z,417.00
2023-03-02T11:07:43.919Z,421.00
2023-03-02T11:08:39.412Z,416.00
2023-03-02T11:09:34.939Z,415.00
2023-03-02T11:10:30.459Z,414.00
2023-03-02T11:11:26.004Z,405.00
2023-03-02T11:12:21.510Z,416.00
2023-03-02T11:13:17.147Z,422.00
2023-03-02T11:14:12.516Z,435.00
2023-03-02T11:15:08.052Z,427.00
2023-03-02T11:16:03.652Z,425.00
2023-03-02T11:16:59.046Z,420.00
2023-03-02T11:17:54.604Z,424.00
2023-03-02T11:18:50.842Z,422.00
2023-03-02T11:19:45.655Z,419.00
2023-03-02T11:20:41.219Z,419.00
2023-03-02T11:21:36.682Z,415.00
2023-03-02T11:22:32.239Z,427.00
2023-03-02T11:23:27.700Z,419.00
2023-03-02T11:24:23.183Z,419.00
2023-03-02T11:25:18.552Z,413.00
2023-03-02T11:26:14.255Z,411.00
2023-03-02T11:27:09.598Z,413.00
2023-03-02T11:28:04.996Z,408.00
2023-03-02T11:29:00.643Z,409.00
2023-03-02T11:29:56.566Z,423.00
2023-03-02T11:30:51.645Z,424.00
2023-03-02T11:31:47.287Z,421.00
2023-03-02T11:32:42.828Z,417.00
2023-03-02T11:33:38.248Z,415.00
2023-03-02T11:34:33.890Z,411.00
2023-03-02T11:35:29.498Z,408.00
2023-03-02T11:36:24.720Z,401.00